CDT,Max TemperatureF,Mean TemperatureF,Min TemperatureF,Max Dew PointF,MeanDew PointF,Min DewpointF,Max Humidity, Mean Humidity, Min Humidity, Max Sea Level PressureIn, Mean Sea Level PressureIn, Min Sea Level PressureIn, Max VisibilityMiles, Mean VisibilityMiles, Min VisibilityMiles, Max Wind SpeedMPH, Mean Wind SpeedMPH, Max Gust SpeedMPH,PrecipitationIn, CloudCover, Events, WindDirDegrees
2012-10-1,73,60,46,54,46,43,88,66,35,30.07,30.00,29.94,10,10,10,28,10,37,0.00,1,Rain-Thunderstorm,350
2012-10-2,71,56,41,45,35,28,87,51,20,30.08,30.00,29.92,10,10,10,9,6,,0.00,0,,291
2012-10-3,82,63,44,48,40,34,71,45,25,29.94,29.90,29.83,10,10,10,24,12,29,0.00,0,,189
2012-10-4,64,55,46,50,36,32,72,50,34,30.29,30.20,29.95,10,10,10,28,16,34,0.00,3,Thunderstorm,20
2012-10-5,55,47,39,32,31,23,75,52,29,30.35,30.27,30.23,10,10,10,21,11,26,0.00,6,,41
2012-10-6,42,38,33,36,33,32,93,78,66,30.38,30.35,30.30,10,10,7,14,8,18,0.01,7,Rain,23
2012-10-7,51,42,32,34,31,28,100,75,44,30.36,30.27,30.16,10,10,7,12,5,,0.00,3,,264
2012-10-8,69,51,33,34,31,27,93,56,21,30.16,30.03,29.92,10,10,10,21,12,26,0.00,0,,206
2012-10-9,66,52,37,43,37,32,81,59,34,30.20,29.95,29.83,10,10,10,24,12,32,0.00,0,,77
2012-10-10,64,48,32,32,28,23,93,51,21,30.30,30.20,30.09,10,10,7,15,6,20,0.00,0,,214
2012-10-11,86,66,46,52,43,32,76,48,22,30.14,30.03,29.94,10,10,10,25,11,32,0.00,1,,203
2012-10-12,55,50,46,52,43,34,100,80,44,30.24,30.15,30.00,10,5,0,20,11,24,0.02,7,Fog-Rain-Thunderstorm,48
2012-10-13,84,68,53,66,54,34,100,71,18,29.95,29.78,29.63,10,7,0,28,12,34,0.04,5,Rain-Thunderstorm,216
2012-10-14,73,60,48,46,41,36,82,55,27,30.13,30.01,29.71,10,10,10,20,14,30,0.00,0,,304
2012-10-15,86,65,44,43,38,34,81,44,15,30.10,29.95,29.82,10,10,10,20,10,28,0.00,0,,225
2012-10-16,80,65,50,52,40,34,71,42,20,29.81,29.68,29.51,10,10,10,13,9,,0.00,0,,200
2012-10-17,69,54,39,54,36,18,88,50,16,29.89,29.66,29.42,10,9,4,32,13,40,0.00,0,Rain,344
2012-10-18,62,50,37,27,19,12,65,30,14,29.96,29.92,29.88,10,6,2,43,16,54,0.00,0,,307
2012-10-19,68,54,41,28,18,9,50,27,11,29.99,29.91,29.83,10,10,10,26,15,34,0.00,0,,308
2012-10-20,86,62,37,48,30,14,67,32,13,29.83,29.75,29.68,10,10,7,14,7,,0.00,0,,181
2012-10-21,89,70,51,61,47,36,100,55,16,29.73,29.68,29.64,10,9,0,17,9,26,0.00,1,Rain,163
2012-10-22,69,58,46,55,52,41,100,78,53,29.89,29.81,29.69,10,7,0,16,9,,0.00,3,Fog,286
2012-10-23,87,74,60,63,48,32,100,51,14,29.78,29.73,29.69,10,9,2,23,15,26,0.00,0,,198
2012-10-24,77,70,62,63,57,46,94,69,34,29.80,29.74,29.63,10,10,7,22,14,30,0.00,1,,212
2012-10-25,68,50,32,63,36,28,100,72,47,30.34,30.04,29.62,10,10,5,34,20,44,0.00,4,,360
2012-10-26,44,36,28,30,25,23,93,69,43,30.53,30.43,30.32,10,10,7,22,14,28,0.00,2,,16
2012-10-27,48,36,23,27,22,19,93,62,34,30.41,30.30,30.20,10,9,4,12,4,,0.00,0,,162
2012-10-28,59,44,28,27,23,21,80,50,25,30.27,30.22,30.15,10,10,10,14,7,17,0.00,0,,167
2012-10-29,69,52,35,32,29,27,75,47,21,30.20,30.14,30.04,10,10,10,20,14,26,0.00,0,,197
2012-10-30,77,59,41,37,34,32,76,48,22,30.04,29.98,29.92,10,10,7,15,9,20,0.00,0,,312
2012-10-31,80,56,33,37,34,32,93,57,18,30.10,30.04,29.97,10,8,0,16,4,20,0.00,0,Fog-Snow,297